Time;durP1;ratioP1;P1;durP2;ratioP2;P2;SDS_P1;SDS_P2;PMS_P1;PMS_P2;Temp;Humidity;BMP_temperature;BMP_pressure;BME280_temperature;BME280_humidity;BME280_pressure;Samples;Min_cycle;Max_cycle;Signal;HPM_P1;HPM_P2
2023/04/28 00:00:51;;;;;;;4.95;4.55;;;14.30;67.10;;;;;;4943166;28;20487;-81
2023/04/28 00:03:17;;;;;;;5.00;4.60;;;14.30;67.20;;;;;;4951723;28;20038;-79
2023/04/28 00:05:45;;;;;;;5.05;4.65;;;14.30;67.20;;;;;;4947683;28;20561;-81
2023/04/28 00:08:11;;;;;;;5.07;4.68;;;14.30;67.30;;;;;;4940652;29;20043;-81
2023/04/28 00:10:37;;;;;;;5.40;4.93;;;14.30;67.30;;;;;;4956351;28;20034;-81
2023/04/28 00:13:03;;;;;;;5.40;5.00;;;14.30;67.30;;;;;;4940823;28;20034;-81
2023/04/28 00:15:29;;;;;;;5.30;4.90;;;14.30;67.40;;;;;;4944454;28;20035;-84
2023/04/28 00:17:55;;;;;;;4.90;4.50;;;14.30;67.40;;;;;;4949235;28;20081;-79
2023/04/28 00:20:21;;;;;;;4.88;4.47;;;14.30;67.50;;;;;;4944635;28;20203;-80
2023/04/28 00:22:48;;;;;;;5.53;5.03;;;14.30;67.60;;;;;;4953195;28;20136;-81
2023/04/28 00:25:14;;;;;;;5.10;4.68;;;14.30;67.60;;;;;;4954597;28;20043;-80
2023/04/28 00:27:40;;;;;;;5.28;4.88;;;14.30;67.70;;;;;;4944469;28;20680;-83
2023/04/28 00:30:07;;;;;;;5.13;4.72;;;14.40;67.90;;;;;;4932366;28;20047;-83
2023/04/28 00:32:33;;;;;;;5.20;4.80;;;14.30;67.70;;;;;;4950958;28;20516;-83
2023/04/28 00:34:59;;;;;;;4.93;4.53;;;14.30;67.80;;;;;;4943543;28;20106;-84
2023/04/28 00:37:25;;;;;;;5.15;4.65;;;14.30;67.80;;;;;;4943140;28;20047;-83
2023/04/28 00:39:55;;;;;;;5.22;4.82;;;14.40;68.00;;;;;;4944896;28;20027;-82
2023/04/28 00:42:20;;;;;;;5.35;4.85;;;14.40;68.10;;;;;;4940618;28;20123;-81
2023/04/28 00:44:46;;;;;;;4.80;4.47;;;14.40;68.10;;;;;;4946810;28;20573;-84
2023/04/28 00:47:14;;;;;;;5.05;4.75;;;14.40;68.20;;;;;;4934340;28;20427;-83
2023/04/28 00:49:40;;;;;;;4.40;4.00;;;14.40;68.20;;;;;;4937363;28;20649;-84
2023/04/28 00:52:06;;;;;;;5.15;4.75;;;14.40;68.20;;;;;;4939753;28;20031;-83
2023/04/28 00:54:36;;;;;;;5.20;4.80;;;14.40;68.20;;;;;;4937940;28;20095;-82
2023/04/28 00:57:03;;;;;;;5.57;5.18;;;14.40;68.20;;;;;;4936460;28;20525;-83
2023/04/28 00:59:29;;;;;;;4.97;4.60;;;14.40;68.30;;;;;;4940695;28;20118;-83
2023/04/28 01:01:55;;;;;;;4.30;4.00;;;14.30;68.10;;;;;;4934871;28;20135;-83
2023/04/28 01:04:22;;;;;;;4.97;4.57;;;14.40;68.30;;;;;;4939971;28;20051;-83
2023/04/28 01:06:54;;;;;;;4.93;4.53;;;14.40;68.40;;;;;;4942397;28;20543;-83
2023/04/28 01:09:21;;;;;;;5.00;4.60;;;14.40;68.50;;;;;;4935864;28;20490;-83
2023/04/28 01:11:49;;;;;;;4.50;4.10;;;14.40;68.40;;;;;;4937202;28;20422;-82
2023/04/28 01:14:35;;;;;;;4.93;4.50;;;14.40;68.40;;;;;;4945083;28;20050;-82
2023/04/28 01:17:02;;;;;;;4.80;4.40;;;14.40;68.50;;;;;;4940602;28;20054;-83
2023/04/28 01:19:29;;;;;;;5.22;4.82;;;14.40;68.50;;;;;;4938885;28;20145;-84
2023/04/28 01:21:55;;;;;;;5.00;4.60;;;14.40;68.60;;;;;;4938051;28;20278;-83
2023/04/28 01:24:22;;;;;;;4.80;4.40;;;14.40;68.60;;;;;;4949303;28;20047;-82
2023/04/28 01:26:49;;;;;;;4.78;4.38;;;14.30;68.50;;;;;;4937898;29;20130;-82
2023/04/28 01:29:16;;;;;;;4.90;4.57;;;14.30;68.50;;;;;;4925412;29;20399;-82
2023/04/28 01:31:42;;;;;;;5.45;5.00;;;14.40;68.80;;;;;;4949737;28;20520;-82
2023/04/28 01:34:08;;;;;;;5.30;4.90;;;14.40;68.80;;;;;;4944881;28;20394;-82
2023/04/28 01:36:35;;;;;;;4.82;4.43;;;14.40;68.80;;;;;;4943691;28;20106;-80
2023/04/28 01:39:02;;;;;;;5.13;4.72;;;14.40;68.80;;;;;;4966230;28;20038;-82
2023/04/28 01:41:28;;;;;;;5.75;5.22;;;14.40;68.90;;;;;;4969081;28;20063;-80
2023/04/28 01:43:55;;;;;;;5.60;5.10;;;14.40;68.90;;;;;;4966450;28;20071;-82
2023/04/28 01:46:21;;;;;;;5.38;4.97;;;14.40;68.90;;;;;;4971168;28;20047;-82
2023/04/28 01:48:46;;;;;;;5.55;5.05;;;14.40;68.90;;;;;;4985834;28;20038;-78
2023/04/28 01:51:13;;;;;;;5.10;4.38;;;14.40;69.00;;;;;;4976767;28;20025;-77
2023/04/28 01:53:39;;;;;;;5.45;5.05;;;14.40;69.00;;;;;;4963636;28;20035;-82
2023/04/28 01:56:05;;;;;;;4.85;4.30;;;14.30;69.40;;;;;;4963729;28;20041;-81
2023/04/28 01:58:30;;;;;;;5.47;5.00;;;14.40;69.00;;;;;;4949457;28;20035;-80
2023/04/28 02:00:57;;;;;;;4.07;3.78;;;14.40;69.10;;;;;;4947731;28;20047;-81
2023/04/28 02:03:23;;;;;;;4.65;4.25;;;14.40;69.10;;;;;;4953638;28;20113;-82
2023/04/28 02:05:49;;;;;;;4.55;4.15;;;14.40;69.10;;;;;;4952994;28;20153;-81
2023/04/28 02:08:15;;;;;;;4.20;3.90;;;14.30;69.00;;;;;;4950272;28;20542;-80
2023/04/28 02:10:41;;;;;;;4.90;4.50;;;14.30;69.00;;;;;;4947411;28;20039;-80
2023/04/28 02:13:07;;;;;;;4.90;4.45;;;14.30;69.00;;;;;;4948942;28;20816;-82
2023/04/28 02:15:34;;;;;;;4.53;4.18;;;14.30;69.00;;;;;;4948681;28;20039;-82
2023/04/28 02:18:00;;;;;;;4.47;4.07;;;14.30;69.10;;;;;;4960643;28;20034;-81
2023/04/28 02:20:26;;;;;;;4.28;3.88;;;14.30;69.10;;;;;;4948577;28;20039;-80
2023/04/28 02:22:53;;;;;;;4.70;4.30;;;14.30;69.10;;;;;;4955517;28;20026;-82
2023/04/28 02:25:19;;;;;;;4.57;4.18;;;14.30;69.10;;;;;;4938873;28;20561;-83
2023/04/28 02:27:45;;;;;;;3.75;3.45;;;14.30;69.10;;;;;;4951859;28;20031;-82
2023/04/28 02:30:11;;;;;;;4.10;3.70;;;14.30;69.10;;;;;;4942035;28;20083;-83
2023/04/28 02:32:37;;;;;;;4.25;3.53;;;14.30;69.20;;;;;;4957794;28;20032;-83
2023/04/28 02:35:03;;;;;;;4.07;3.67;;;14.30;69.20;;;;;;4949364;28;20439;-83
2023/04/28 02:37:29;;;;;;;4.00;3.63;;;14.30;69.20;;;;;;4951815;29;20043;-83
2023/04/28 02:39:55;;;;;;;3.65;3.35;;;14.30;69.20;;;;;;4949806;29;20062;-81
2023/04/28 02:42:21;;;;;;;3.50;3.20;;;14.30;69.30;;;;;;4969243;28;21081;-81
2023/04/28 02:44:47;;;;;;;4.25;3.78;;;14.20;69.10;;;;;;4961460;28;20043;-81
2023/04/28 02:47:13;;;;;;;3.60;3.20;;;14.20;69.10;;;;;;4949766;28;20054;-83
2023/04/28 02:49:40;;;;;;;4.35;3.50;;;14.30;69.30;;;;;;4949218;28;20422;-82
2023/04/28 02:52:05;;;;;;;3.67;3.38;;;14.30;69.30;;;;;;4949780;29;20032;-83
2023/04/28 02:54:34;;;;;;;4.30;3.30;;;14.20;69.10;;;;;;4948505;29;20039;-82
2023/04/28 02:57:00;;;;;;;3.28;3.03;;;14.20;69.10;;;;;;4949886;28;20089;-82
2023/04/28 02:59:26;;;;;;;4.43;2.95;;;14.20;69.10;;;;;;4944943;29;20175;-82
2023/04/28 03:01:52;;;;;;;5.18;2.83;;;14.20;69.20;;;;;;4949042;28;20538;-82
2023/04/28 03:04:18;;;;;;;2.75;2.55;;;14.20;69.20;;;;;;4949022;29;20074;-82
2023/04/28 03:06:44;;;;;;;3.08;2.78;;;14.20;69.20;;;;;;4949317;28;20082;-82
2023/04/28 03:09:11;;;;;;;3.20;2.70;;;14.20;69.20;;;;;;4953839;28;20514;-81
2023/04/28 03:11:37;;;;;;;2.53;2.17;;;14.20;69.30;;;;;;4948866;28;20522;-82
2023/04/28 03:14:03;;;;;;;2.65;2.45;;;14.20;69.30;;;;;;4947038;28;20070;-83
2023/04/28 03:16:29;;;;;;;2.00;1.80;;;14.10;69.10;;;;;;4951189;29;20043;-82
2023/04/28 03:18:55;;;;;;;3.88;2.88;;;14.10;69.20;;;;;;4950295;28;20054;-83
2023/04/28 03:21:21;;;;;;;2.35;2.15;;;14.10;69.20;;;;;;4949221;28;20035;-82
2023/04/28 03:23:47;;;;;;;1.92;1.83;;;14.10;69.30;;;;;;4945554;28;20031;-83
2023/04/28 03:26:13;;;;;;;2.47;2.22;;;14.10;69.30;;;;;;4949609;29;20039;-80
2023/04/28 03:28:39;;;;;;;2.00;1.83;;;14.10;69.30;;;;;;4935138;29;20028;-82
2023/04/28 03:31:04;;;;;;;1.73;1.63;;;14.10;69.30;;;;;;4950101;28;20035;-82
2023/04/28 03:33:30;;;;;;;1.80;1.70;;;14.10;69.30;;;;;;4959614;28;20035;-81
2023/04/28 03:35:58;;;;;;;1.67;1.58;;;14.10;69.30;;;;;;4950306;28;20660;-80
2023/04/28 03:38:24;;;;;;;1.60;1.50;;;14.10;69.30;;;;;;4935798;29;20071;-81
2023/04/28 03:40:50;;;;;;;2.00;1.77;;;14.10;69.30;;;;;;4951985;28;20035;-81
2023/04/28 03:43:36;;;;;;;1.30;1.20;;;14.10;69.30;;;;;;4945384;28;20087;-82
2023/04/28 03:46:24;;;;;;;1.50;1.40;;;14.10;69.30;;;;;;4934486;28;20078;-82
2023/04/28 03:48:52;;;;;;;1.40;1.15;;;14.10;69.30;;;;;;4963292;28;20067;-82
2023/04/28 03:51:18;;;;;;;0.95;0.95;;;14.10;69.30;;;;;;4951710;28;20027;-83
2023/04/28 03:53:44;;;;;;;1.42;1.02;;;14.10;69.30;;;;;;4951231;28;20058;-83
2023/04/28 03:56:11;;;;;;;1.60;1.10;;;14.10;69.30;;;;;;4950356;28;20373;-84
2023/04/28 03:58:38;;;;;;;1.38;1.00;;;14.10;69.30;;;;;;4953451;28;20038;-83
2023/04/28 04:01:04;;;;;;;1.25;0.95;;;14.10;69.30;;;;;;4946699;28;20042;-82
2023/04/28 04:03:30;;;;;;;0.95;0.90;;;14.10;69.30;;;;;;4955293;28;20432;-83
2023/04/28 04:05:57;;;;;;;1.30;1.20;;;14.10;69.40;;;;;;4944508;28;20488;-82
2023/04/28 04:08:23;;;;;;;1.00;0.77;;;14.10;69.40;;;;;;4949767;28;20039;-83
2023/04/28 04:10:49;;;;;;;0.80;0.80;;;14.10;69.40;;;;;;4942210;29;20057;-82
2023/04/28 04:13:15;;;;;;;0.82;0.60;;;14.10;69.40;;;;;;4946306;29;20043;-81
2023/04/28 04:15:43;;;;;;;0.93;0.93;;;14.10;69.40;;;;;;4948311;28;20027;-82
2023/04/28 04:18:09;;;;;;;0.60;0.60;;;14.10;69.40;;;;;;4947448;29;20062;-83
2023/04/28 04:20:57;;;;;;;2.05;0.70;;;14.10;69.50;;;;;;4949194;28;20043;-83
2023/04/28 04:23:23;;;;;;;1.00;0.80;;;14.10;69.40;;;;;;4948335;28;20028;-84
2023/04/28 04:25:50;;;;;;;0.50;0.50;;;14.10;69.50;;;;;;4947790;28;20036;-82
2023/04/28 04:28:17;;;;;;;0.95;0.50;;;14.10;69.50;;;;;;4944107;28;20047;-83
2023/04/28 04:30:43;;;;;;;1.20;0.70;;;14.10;69.50;;;;;;4948178;28;20031;-83
2023/04/28 04:33:09;;;;;;;2.70;1.10;;;14.10;69.50;;;;;;4958160;28;20050;-83
2023/04/28 04:35:35;;;;;;;1.02;0.70;;;14.10;69.50;;;;;;4953284;28;20030;-83
2023/04/28 04:38:02;;;;;;;1.42;0.50;;;14.10;69.50;;;;;;4950733;28;20035;-83
2023/04/28 04:40:28;;;;;;;0.93;0.60;;;14.10;69.60;;;;;;4953556;28;20491;-83
2023/04/28 04:42:55;;;;;;;1.80;0.70;;;14.00;69.40;;;;;;4951038;28;20038;-83
2023/04/28 04:45:22;;;;;;;0.77;0.70;;;14.10;69.60;;;;;;4955701;28;20046;-81
2023/04/28 04:47:49;;;;;;;0.68;0.50;;;14.10;69.70;;;;;;4946237;28;20097;-82
2023/04/28 04:50:15;;;;;;;1.77;0.82;;;14.00;69.50;;;;;;4943015;28;20042;-81
2023/04/28 04:52:41;;;;;;;0.50;0.50;;;14.00;69.50;;;;;;4944700;28;20031;-83
2023/04/28 04:55:09;;;;;;;0.80;0.68;;;14.00;69.60;;;;;;4943972;28;20487;-83
2023/04/28 04:57:36;;;;;;;3.00;0.60;;;14.00;69.60;;;;;;4948240;28;20113;-83
2023/04/28 05:00:15;;;;;;;1.55;0.80;;;14.00;69.60;;;;;;4945851;28;20062;-83
2023/04/28 05:02:42;;;;;;;0.68;0.57;;;14.00;69.60;;;;;;4943424;28;20063;-83
2023/04/28 05:05:08;;;;;;;1.33;0.50;;;14.00;69.60;;;;;;4944397;28;20578;-83
2023/04/28 05:07:35;;;;;;;2.45;0.65;;;13.90;69.50;;;;;;4944410;28;20041;-83
2023/04/28 05:10:02;;;;;;;0.90;0.47;;;13.90;69.50;;;;;;4944296;28;20035;-83
2023/04/28 05:12:29;;;;;;;0.73;0.70;;;13.90;69.50;;;;;;4939976;28;20762;-82
2023/04/28 05:14:54;;;;;;;1.80;0.50;;;14.00;69.70;;;;;;4937207;28;20027;-82
2023/04/28 05:17:21;;;;;;;1.27;0.50;;;13.90;69.50;;;;;;4939616;28;20055;-81
2023/04/28 05:19:47;;;;;;;1.52;0.45;;;14.00;69.70;;;;;;4940811;28;20050;-80
2023/04/28 05:22:14;;;;;;;2.85;1.27;;;14.00;69.70;;;;;;4939327;28;20035;-80
2023/04/28 05:24:40;;;;;;;0.60;0.35;;;14.00;69.70;;;;;;4939916;28;20195;-82
2023/04/28 05:27:06;;;;;;;2.28;0.47;;;14.00;69.80;;;;;;4938421;28;20027;-82
2023/04/28 05:29:33;;;;;;;1.17;0.85;;;14.00;69.70;;;;;;4943396;28;20117;-82
2023/04/28 05:31:59;;;;;;;1.20;0.50;;;14.00;69.70;;;;;;4941967;28;20479;-83
2023/04/28 05:34:25;;;;;;;2.80;0.70;;;14.00;69.80;;;;;;4939437;28;20039;-80
2023/04/28 05:36:51;;;;;;;0.88;0.50;;;14.00;69.80;;;;;;4941037;28;20533;-80
2023/04/28 05:39:19;;;;;;;2.13;0.50;;;14.00;69.80;;;;;;4955684;28;20554;-81
2023/04/28 05:41:45;;;;;;;1.05;0.60;;;14.10;70.00;;;;;;4939132;28;20039;-80
2023/04/28 05:44:11;;;;;;;1.58;0.68;;;14.10;70.00;;;;;;4939144;28;20054;-78
2023/04/28 05:46:38;;;;;;;1.23;0.45;;;14.10;70.00;;;;;;4939435;28;20039;-78
2023/04/28 05:49:05;;;;;;;1.00;0.60;;;14.10;70.00;;;;;;4932604;28;20041;-81
2023/04/28 05:51:35;;;;;;;1.58;0.60;;;14.10;70.00;;;;;;4936263;28;20399;-81
2023/04/28 05:54:02;;;;;;;0.98;0.68;;;14.10;70.00;;;;;;4938316;28;20142;-81
2023/04/28 05:56:29;;;;;;;3.25;0.90;;;14.10;70.00;;;;;;4936631;28;20054;-80
2023/04/28 05:58:57;;;;;;;1.30;0.60;;;14.10;70.50;;;;;;4925367;29;20046;-80
2023/04/28 06:01:23;;;;;;;2.65;0.90;;;14.10;70.00;;;;;;4917733;28;20126;-80
2023/04/28 06:03:49;;;;;;;2.50;0.93;;;14.10;70.00;;;;;;4934286;28;20043;-78
2023/04/28 06:06:15;;;;;;;2.67;1.00;;;14.10;70.00;;;;;;4936814;28;20403;-79
2023/04/28 06:08:41;;;;;;;2.83;1.48;;;14.10;70.10;;;;;;4936653;28;20031;-77
2023/04/28 06:11:07;;;;;;;2.10;1.10;;;14.10;70.30;;;;;;4934613;28;20098;-77
2023/04/28 06:13:33;;;;;;;2.85;1.17;;;14.10;70.50;;;;;;4930344;28;20031;-77
2023/04/28 06:16:02;;;;;;;2.80;1.23;;;14.20;70.80;;;;;;4937239;28;20032;-77
2023/04/28 06:18:31;;;;;;;5.22;1.35;;;14.30;71.00;;;;;;4934868;28;20101;-77
2023/04/28 06:21:00;;;;;;;2.63;1.13;;;14.30;71.00;;;;;;4939446;28;20402;-77
2023/04/28 06:23:26;;;;;;;3.63;1.23;;;14.30;71.00;;;;;;4935593;28;20063;-78
2023/04/28 06:25:53;;;;;;;2.58;1.27;;;14.30;71.10;;;;;;4934475;28;20047;-78
2023/04/28 06:28:18;;;;;;;2.63;1.83;;;14.30;71.30;;;;;;4939535;28;20476;-79
2023/04/28 06:30:44;;;;;;;3.03;1.63;;;14.40;71.50;;;;;;4933425;28;20074;-78
2023/04/28 06:33:10;;;;;;;4.07;1.40;;;14.40;71.40;;;;;;4939422;28;20569;-79
2023/04/28 06:35:39;;;;;;;1.92;1.52;;;14.50;71.60;;;;;;4936825;28;20039;-79
2023/04/28 06:38:05;;;;;;;2.85;1.95;;;14.50;71.60;;;;;;4920072;28;20081;-79
2023/04/28 06:40:31;;;;;;;2.55;1.20;;;14.50;71.60;;;;;;4936325;28;20407;-80
2023/04/28 06:42:59;;;;;;;2.42;1.45;;;14.60;71.60;;;;;;4931393;28;20526;-80
2023/04/28 06:45:36;;;;;;;2.88;1.85;;;14.60;71.50;;;;;;4946199;28;20142;-79
2023/04/28 06:48:02;;;;;;;3.25;2.08;;;14.70;71.60;;;;;;4947706;28;21416;-78
2023/04/28 06:50:28;;;;;;;3.17;2.38;;;14.80;71.80;;;;;;4954056;28;20035;-78
2023/04/28 06:52:54;;;;;;;3.08;2.22;;;14.80;71.70;;;;;;4960698;28;20027;-79
2023/04/28 06:55:20;;;;;;;2.65;2.45;;;14.80;71.70;;;;;;4959434;28;20062;-80
2023/04/28 06:57:46;;;;;;;2.28;2.08;;;14.80;71.70;;;;;;4964158;28;20036;-79
2023/04/28 07:00:13;;;;;;;6.22;3.25;;;14.80;71.70;;;;;;4961831;28;20466;-80
2023/04/28 07:02:39;;;;;;;5.60;3.08;;;14.90;71.80;;;;;;4940822;28;20042;-80
2023/04/28 07:05:05;;;;;;;3.40;3.08;;;15.00;71.90;;;;;;4944218;28;20035;-79
2023/04/28 07:07:31;;;;;;;3.63;2.85;;;15.00;71.70;;;;;;4940816;28;20519;-77
2023/04/28 07:09:57;;;;;;;4.25;3.42;;;15.10;71.80;;;;;;4940108;28;20042;-78
2023/04/28 07:12:23;;;;;;;5.03;3.33;;;15.20;71.80;;;;;;4938893;28;20439;-77
2023/04/28 07:14:50;;;;;;;4.10;3.22;;;15.20;71.70;;;;;;4936040;28;20044;-77
2023/04/28 07:17:16;;;;;;;4.10;3.70;;;15.30;71.90;;;;;;4936903;28;20043;-77
2023/04/28 07:19:42;;;;;;;4.60;3.70;;;15.30;71.80;;;;;;4938154;28;20398;-78
2023/04/28 07:22:08;;;;;;;4.03;3.60;;;15.40;71.80;;;;;;4940918;28;20503;-78
2023/04/28 07:24:33;;;;;;;6.72;4.15;;;15.40;71.60;;;;;;4929824;28;20051;-76
2023/04/28 07:27:00;;;;;;;4.25;3.85;;;15.50;71.70;;;;;;4936990;28;20043;-77
2023/04/28 07:29:32;;;;;;;5.97;4.10;;;15.50;71.60;;;;;;4935571;28;20113;-76
2023/04/28 07:32:00;;;;;;;6.75;4.85;;;15.60;71.60;;;;;;4955520;28;20050;-78
2023/04/28 07:34:26;;;;;;;5.55;4.72;;;15.60;71.60;;;;;;4941179;28;20449;-77
2023/04/28 07:36:52;;;;;;;5.78;4.88;;;15.60;71.50;;;;;;4942252;28;20522;-77
2023/04/28 07:39:18;;;;;;;6.93;6.03;;;15.70;71.60;;;;;;4931411;28;20047;-78
2023/04/28 07:41:44;;;;;;;7.47;5.18;;;15.70;71.50;;;;;;4931197;28;20283;-79
2023/04/28 07:44:10;;;;;;;6.38;5.57;;;15.70;71.50;;;;;;4939490;28;20151;-79
2023/04/28 07:46:36;;;;;;;7.40;4.95;;;15.80;71.50;;;;;;4937633;28;20063;-79
2023/04/28 07:49:03;;;;;;;5.03;4.53;;;15.80;71.50;;;;;;4932264;28;20620;-80
2023/04/28 07:51:30;;;;;;;7.93;3.97;;;16.00;72.00;;;;;;4936011;28;20043;-80
2023/04/28 07:53:56;;;;;;;4.80;4.20;;;16.20;72.40;;;;;;4936486;28;20035;-77
2023/04/28 07:56:23;;;;;;;4.28;3.88;;;16.40;72.50;;;;;;4934859;28;20051;-78
2023/04/28 07:58:50;;;;;;;5.97;3.45;;;16.60;72.50;;;;;;4936609;28;20089;-77
2023/04/28 08:01:16;;;;;;;4.72;3.25;;;16.80;72.40;;;;;;4930734;28;20031;-77
2023/04/28 08:03:42;;;;;;;5.38;4.00;;;17.10;72.60;;;;;;4931352;28;20058;-78
2023/04/28 08:06:07;;;;;;;6.25;3.55;;;17.20;72.40;;;;;;4943247;28;20040;-77
2023/04/28 08:08:34;;;;;;;5.45;3.33;;;17.40;72.40;;;;;;4933945;28;20046;-76
2023/04/28 08:11:00;;;;;;;7.63;3.80;;;17.60;72.40;;;;;;4934992;28;20459;-80
2023/04/28 08:13:27;;;;;;;4.53;3.67;;;17.70;72.30;;;;;;4931394;28;20384;-79
2023/04/28 08:15:55;;;;;;;4.22;3.20;;;17.90;72.30;;;;;;4930285;29;20043;-78
2023/04/28 08:18:22;;;;;;;7.03;3.88;;;18.00;72.10;;;;;;4940119;28;20525;-78
2023/04/28 08:20:48;;;;;;;6.22;3.80;;;18.10;71.90;;;;;;4939660;28;20061;-79
2023/04/28 08:23:14;;;;;;;7.57;3.72;;;18.30;71.90;;;;;;4939546;28;20035;-78
2023/04/28 08:25:40;;;;;;;5.05;3.72;;;18.40;71.80;;;;;;4936826;28;20398;-79
2023/04/28 08:28:07;;;;;;;5.28;4.05;;;18.50;71.60;;;;;;4935282;28;20239;-78
2023/04/28 08:30:34;;;;;;;4.45;3.70;;;18.60;71.50;;;;;;4938593;28;20035;-79
2023/04/28 08:32:59;;;;;;;5.65;3.60;;;18.70;71.40;;;;;;4938268;28;20178;-78
2023/04/28 08:35:25;;;;;;;4.03;3.63;;;18.80;71.20;;;;;;4934416;28;20122;-79
2023/04/28 08:37:52;;;;;;;5.13;3.38;;;19.00;71.20;;;;;;4930305;28;20063;-78
2023/04/28 08:40:18;;;;;;;4.88;3.40;;;19.10;70.90;;;;;;4940166;28;20031;-79
2023/04/28 08:42:45;;;;;;;3.72;3.35;;;19.20;70.70;;;;;;4938605;28;20732;-80
2023/04/28 08:45:14;;;;;;;4.18;3.65;;;19.30;70.60;;;;;;4933806;28;20135;-78
2023/04/28 08:47:44;;;;;;;4.63;4.18;;;19.40;70.40;;;;;;4927680;28;20148;-79
2023/04/28 08:50:11;;;;;;;3.75;3.40;;;19.50;70.20;;;;;;4933068;28;20282;-79
2023/04/28 08:52:39;;;;;;;4.78;3.65;;;19.70;70.10;;;;;;4934248;28;20047;-79
2023/04/28 08:55:09;;;;;;;4.22;3.70;;;19.80;69.80;;;;;;4936008;28;20074;-80
2023/04/28 08:57:42;;;;;;;3.72;3.30;;;19.90;69.50;;;;;;4935436;28;20035;-79
2023/04/28 09:00:09;;;;;;;5.35;3.28;;;20.10;69.50;;;;;;4928011;28;20034;-79
2023/04/28 09:02:41;;;;;;;3.92;3.35;;;20.20;69.30;;;;;;4938660;28;20039;-79
2023/04/28 09:05:09;;;;;;;4.60;3.75;;;20.40;69.10;;;;;;4938811;28;20138;-79
2023/04/28 09:07:35;;;;;;;6.68;3.67;;;20.60;68.90;;;;;;4937002;28;20108;-79
2023/04/28 09:10:18;;;;;;;4.65;4.25;;;20.70;68.50;;;;;;4936356;28;20329;-81
2023/04/28 09:12:44;;;;;;;5.53;3.60;;;20.90;68.30;;;;;;4944620;28;20039;-79
2023/04/28 09:15:12;;;;;;;4.30;3.67;;;21.00;68.10;;;;;;4936993;28;20023;-80
2023/04/28 09:17:51;;;;;;;3.88;3.20;;;21.20;68.00;;;;;;4934719;28;20254;-80
2023/04/28 09:20:24;;;;;;;4.75;3.75;;;21.30;67.50;;;;;;4931236;28;20036;-81
2023/04/28 09:22:50;;;;;;;;;;;21.40;67.30;;;;;;4942807;28;20360;-80
2023/04/28 09:25:18;;;;;;;7.55;4.55;;;21.50;67.40;;;;;;4938454;28;19922;-81
2023/04/28 09:27:44;;;;;;;3.78;3.40;;;21.50;67.40;;;;;;4933464;28;20042;-79
2023/04/28 09:30:10;;;;;;;7.53;3.40;;;21.40;67.10;;;;;;4939086;28;20047;-84
2023/04/28 09:32:36;;;;;;;5.15;4.05;;;21.40;67.00;;;;;;4935981;28;20283;-86
2023/04/28 09:35:03;;;;;;;6.38;3.88;;;21.40;67.10;;;;;;4935626;28;20024;-84
2023/04/28 09:37:30;;;;;;;5.30;3.53;;;21.40;67.00;;;;;;4937080;28;20046;-83
2023/04/28 09:39:58;;;;;;;4.32;3.80;;;21.40;66.80;;;;;;4936927;28;20031;-84
2023/04/28 09:42:43;;;;;;;4.47;4.07;;;21.40;66.60;;;;;;4931980;28;20496;-87
2023/04/28 09:45:12;;;;;;;4.35;3.92;;;21.40;66.40;;;;;;4947210;28;20032;-86
2023/04/28 09:47:40;;;;;;;4.90;3.85;;;21.40;66.40;;;;;;4934573;28;20071;-84
2023/04/28 09:50:11;;;;;;;5.00;4.40;;;21.50;66.50;;;;;;4934586;28;20070;-81
2023/04/28 09:52:37;;;;;;;5.03;4.18;;;21.50;66.30;;;;;;4926367;28;20035;-81
2023/04/28 09:55:05;;;;;;;4.85;4.07;;;21.70;66.30;;;;;;4936204;28;20042;-81
2023/04/28 09:57:34;;;;;;;4.30;3.90;;;21.90;66.20;;;;;;4927636;28;20038;-84
2023/04/28 10:00:01;;;;;;;5.00;4.20;;;22.10;66.00;;;;;;4928683;28;20043;-82
2023/04/28 10:02:27;;;;;;;5.28;4.65;;;22.30;65.70;;;;;;4932087;28;20031;-82
2023/04/28 10:04:53;;;;;;;6.53;4.32;;;22.50;65.50;;;;;;4932599;28;20047;-82
2023/04/28 10:07:20;;;;;;;5.15;4.65;;;22.60;65.70;;;;;;4934663;28;20113;-83
2023/04/28 10:09:49;;;;;;;5.95;4.75;;;22.80;65.10;;;;;;4936608;28;20046;-81
2023/04/28 10:12:16;;;;;;;4.22;3.83;;;22.90;64.80;;;;;;4937425;28;20038;-85
2023/04/28 10:14:48;;;;;;;5.47;4.13;;;23.20;64.70;;;;;;4937299;28;20103;-85
2023/04/28 10:17:16;;;;;;;6.13;4.78;;;23.30;64.30;;;;;;4947569;28;20039;-85
2023/04/28 10:19:46;;;;;;;5.28;4.57;;;23.40;64.00;;;;;;4933210;28;20102;-89
2023/04/28 10:22:39;;;;;;;4.78;4.38;;;23.40;63.80;;;;;;4938153;28;20492;-82
2023/04/28 10:25:11;;;;;;;6.18;4.78;;;23.40;63.70;;;;;;4940106;28;20314;-81
2023/04/28 10:27:47;;;;;;;4.10;3.70;;;23.30;63.80;;;;;;4937457;28;20128;-83
2023/04/28 10:30:20;;;;;;;4.53;4.13;;;23.30;63.50;;;;;;4936804;28;20044;-82
2023/04/28 10:32:46;;;;;;;5.15;4.63;;;23.30;63.60;;;;;;4942329;28;20487;-83
2023/04/28 10:35:22;;;;;;;4.97;4.07;;;23.30;63.50;;;;;;4941721;28;20413;-82
2023/04/28 10:38:14;;;;;;;5.25;4.20;;;23.30;63.20;;;;;;4949519;28;20067;-83
2023/04/28 10:40:42;;;;;;;8.40;4.75;;;23.40;63.10;;;;;;4940979;28;20046;-82
2023/04/28 10:43:24;;;;;;;5.13;4.57;;;23.50;63.20;;;;;;4936063;28;20126;-81
2023/04/28 10:45:57;;;;;;;6.07;4.63;;;23.60;63.10;;;;;;4942100;28;20189;-80
2023/04/28 10:48:46;;;;;;;6.20;4.97;;;23.70;63.10;;;;;;4943538;28;20662;-81
2023/04/28 10:51:15;;;;;;;3.85;3.50;;;23.70;62.60;;;;;;4943733;28;20502;-82
2023/04/28 10:53:41;;;;;;;4.43;4.03;;;23.80;62.80;;;;;;4937361;28;20043;-86
2023/04/28 10:56:07;;;;;;;4.38;3.97;;;23.90;62.70;;;;;;4945821;28;20039;-84
2023/04/28 10:58:36;;;;;;;5.28;4.22;;;23.90;62.50;;;;;;4943306;28;20039;-82
2023/04/28 11:01:20;;;;;;;4.78;4.38;;;24.00;62.40;;;;;;4932174;29;20035;-82
2023/04/28 11:03:46;;;;;;;5.03;4.53;;;24.20;62.10;;;;;;4938980;28;20342;-82
2023/04/28 11:06:35;;;;;;;4.97;4.35;;;24.40;62.30;;;;;;4932931;28;20154;-81
2023/04/28 11:09:11;;;;;;;5.05;4.57;;;24.60;62.20;;;;;;4935796;28;20035;-80
2023/04/28 11:11:38;;;;;;;5.80;4.82;;;24.70;62.10;;;;;;4938914;28;20044;-80
2023/04/28 11:14:17;;;;;;;5.30;4.88;;;24.90;62.00;;;;;;4942982;28;20452;-81
2023/04/28 11:17:01;;;;;;;5.50;5.00;;;25.10;61.80;;;;;;4936499;28;20047;-81
2023/04/28 11:19:40;;;;;;;5.53;5.03;;;25.30;61.30;;;;;;4932620;28;20077;-79
2023/04/28 11:22:14;;;;;;;6.75;6.15;;;25.40;61.00;;;;;;4934116;28;20039;-78
2023/04/28 11:24:40;;;;;;;5.68;5.00;;;25.50;60.90;;;;;;4938762;28;20062;-79
2023/04/28 11:27:06;;;;;;;7.85;5.93;;;25.60;60.80;;;;;;4935721;28;20034;-79
2023/04/28 11:29:37;;;;;;;6.22;5.63;;;25.80;60.50;;;;;;4939453;28;20395;-79
2023/04/28 11:32:09;;;;;;;7.50;5.80;;;26.00;60.10;;;;;;4936316;28;20118;-78
2023/04/28 11:34:36;;;;;;;6.70;6.00;;;26.10;59.90;;;;;;4942642;28;20393;-79
2023/04/28 11:37:02;;;;;;;6.97;6.38;;;26.10;59.70;;;;;;4938919;28;20039;-79
2023/04/28 11:39:32;;;;;;;7.05;6.18;;;26.10;59.70;;;;;;4936225;28;20070;-81
2023/04/28 11:42:01;;;;;;;8.32;7.47;;;26.20;59.50;;;;;;4934607;28;20035;-81
2023/04/28 11:44:29;;;;;;;7.78;6.97;;;26.30;59.30;;;;;;4939721;28;20415;-85
2023/04/28 11:46:59;;;;;;;8.65;7.70;;;26.40;59.00;;;;;;4933855;28;20282;-79
2023/04/28 11:49:29;;;;;;;7.45;6.65;;;26.50;58.70;;;;;;4939509;28;20294;-77
2023/04/28 11:52:06;;;;;;;7.93;6.97;;;26.50;58.60;;;;;;4943866;28;20392;-79
2023/04/28 11:54:32;;;;;;;7.82;7.03;;;26.40;58.50;;;;;;4940378;28;20035;-79
2023/04/28 11:56:59;;;;;;;7.75;7.00;;;26.40;58.60;;;;;;4942066;28;20035;-81
2023/04/28 11:59:32;;;;;;;9.20;7.25;;;26.40;58.50;;;;;;4945097;28;20750;-79
2023/04/28 12:02:03;;;;;;;8.85;7.05;;;26.50;58.30;;;;;;4949962;28;20034;-80
2023/04/28 12:04:36;;;;;;;8.48;7.55;;;26.60;58.20;;;;;;4955257;28;20061;-79
2023/04/28 12:07:04;;;;;;;8.63;7.72;;;26.60;58.00;;;;;;4958894;28;20043;-80
2023/04/28 12:09:31;;;;;;;9.38;8.48;;;26.70;57.80;;;;;;4963253;28;20035;-79
2023/04/28 12:12:01;;;;;;;8.02;7.22;;;26.70;57.70;;;;;;4964600;28;20051;-79
2023/04/28 12:14:28;;;;;;;11.00;9.93;;;26.70;57.50;;;;;;4961773;28;20027;-78
2023/04/28 12:16:55;;;;;;;9.27;8.35;;;26.70;57.50;;;;;;4966867;28;20066;-79
2023/04/28 12:19:21;;;;;;;9.32;8.25;;;26.70;57.50;;;;;;4954924;28;20073;-79
2023/04/28 12:22:06;;;;;;;9.20;8.30;;;26.60;57.50;;;;;;4943969;28;20554;-79
2023/04/28 12:24:34;;;;;;;9.30;8.40;;;26.70;57.20;;;;;;4939545;28;20047;-80
2023/04/28 12:27:15;;;;;;;10.55;9.43;;;26.70;57.30;;;;;;4930983;28;20097;-79
2023/04/28 12:29:42;;;;;;;9.30;8.40;;;26.80;56.90;;;;;;4937841;28;20502;-80
2023/04/28 12:32:09;;;;;;;11.00;8.38;;;27.00;56.90;;;;;;4940369;28;20520;-80
2023/04/28 12:34:36;;;;;;;9.88;8.63;;;27.10;56.60;;;;;;4940541;28;20031;-78
2023/04/28 12:37:04;;;;;;;10.70;9.55;;;27.30;56.30;;;;;;4934480;28;20043;-79
2023/04/28 12:39:32;;;;;;;11.18;9.45;;;27.30;56.10;;;;;;4937137;28;20043;-78
2023/04/28 12:41:58;;;;;;;10.13;9.10;;;27.30;56.00;;;;;;4937164;28;20120;-78
2023/04/28 12:44:27;;;;;;;9.40;8.50;;;27.30;55.90;;;;;;4937440;28;20218;-78
2023/04/28 12:46:53;;;;;;;11.20;10.00;;;27.30;55.90;;;;;;4938572;28;20099;-78
2023/04/28 12:49:20;;;;;;;11.20;9.93;;;27.40;55.90;;;;;;4937734;28;20534;-78
2023/04/28 12:51:46;;;;;;;10.55;9.55;;;27.70;55.50;;;;;;4935797;28;20039;-78